sensor_id;sensor_type;location;lat;lon;timestamp;pressure;altitude;pressure_sealevel;temperature;humidity
65546;BME280;52177;55.968;37.498;2023-01-01T00:00:17;99255.81;;;0.92;86.88
65546;BME280;52177;55.968;37.498;2023-01-01T00:00:48;99254.97;;;0.92;86.82
65546;BME280;52177;55.968;37.498;2023-01-01T00:01:18;99258.56;;;0.91;86.85
65546;BME280;52177;55.968;37.498;2023-01-01T00:01:48;99254.97;;;0.92;86.91
65546;BME280;52177;55.968;37.498;2023-01-01T00:02:19;99252.22;;;0.93;86.89
65546;BME280;52177;55.968;37.498;2023-01-01T00:02:49;99259.97;;;0.95;86.96
65546;BME280;52177;55.968;37.498;2023-01-01T00:03:20;99254.84;;;0.93;86.80
65546;BME280;52177;55.968;37.498;2023-01-01T00:03:54;99264.38;;;0.94;86.72
65546;BME280;52177;55.968;37.498;2023-01-01T00:04:25;99251.28;;;0.94;86.84
65546;BME280;52177;55.968;37.498;2023-01-01T00:04:55;99257.34;;;0.95;86.82
65546;BME280;52177;55.968;37.498;2023-01-01T00:05:26;99255.94;;;0.91;86.89
65546;BME280;52177;55.968;37.498;2023-01-01T00:05:56;99254.28;;;0.90;86.98
65546;BME280;52177;55.968;37.498;2023-01-01T00:06:26;99254.28;;;0.90;87.01
65546;BME280;52177;55.968;37.498;2023-01-01T00:06:57;99255.94;;;0.91;87.08
65546;BME280;52177;55.968;37.498;2023-01-01T00:07:28;99253.31;;;0.91;87.23
65546;BME280;52177;55.968;37.498;2023-01-01T00:07:58;99252.47;;;0.90;86.94
65546;BME280;52177;55.968;37.498;2023-01-01T00:08:29;99256.75;;;0.91;87.16
65546;BME280;52177;55.968;37.498;2023-01-01T00:09:00;99253.31;;;0.91;87.23
65546;BME280;52177;55.968;37.498;2023-01-01T00:09:49;99250.69;;;0.91;87.30
65546;BME280;52177;55.968;37.498;2023-01-01T00:10:38;99247.94;;;0.92;87.38
65546;BME280;52177;55.968;37.498;2023-01-01T00:11:09;99258.31;;;0.94;87.08
65546;BME280;52177;55.968;37.498;2023-01-01T00:11:39;99256.53;;;0.94;87.16
65546;BME280;52177;55.968;37.498;2023-01-01T00:12:10;99246.03;;;0.94;87.16
65546;BME280;52177;55.968;37.498;2023-01-01T00:12:40;99246.03;;;0.94;87.08
65546;BME280;52177;55.968;37.498;2023-01-01T00:13:12;99245.88;;;0.96;87.12
65546;BME280;52177;55.968;37.498;2023-01-01T00:13:43;99250.19;;;0.97;86.86
65546;BME280;52177;55.968;37.498;2023-01-01T00:14:13;99245.06;;;0.95;86.97
65546;BME280;52177;55.968;37.498;2023-01-01T00:14:44;99245.88;;;0.96;87.06
65546;BME280;52177;55.968;37.498;2023-01-01T00:15:14;99243.41;;;0.94;87.12
65546;BME280;52177;55.968;37.498;2023-01-01T00:15:44;99247.56;;;0.97;87.03
65546;BME280;52177;55.968;37.498;2023-01-01T00:16:15;99240.78;;;0.94;86.99
65546;BME280;52177;55.968;37.498;2023-01-01T00:16:45;99250.19;;;0.97;87.11
65546;BME280;52177;55.968;37.498;2023-01-01T00:17:15;99248.66;;;0.94;87.05
65546;BME280;52177;55.968;37.498;2023-01-01T00:17:46;99239.81;;;0.95;87.14
65546;BME280;52177;55.968;37.498;2023-01-01T00:18:16;99239.81;;;0.95;87.10
65546;BME280;52177;55.968;37.498;2023-01-01T00:18:46;99238.00;;;0.96;87.07
65546;BME280;52177;55.968;37.498;2023-01-01T00:19:17;99239.81;;;0.95;87.07
65546;BME280;52177;55.968;37.498;2023-01-01T00:19:47;99235.53;;;0.94;87.03
65546;BME280;52177;55.968;37.498;2023-01-01T00:20:18;99231.22;;;0.93;87.35
65546;BME280;52177;55.968;37.498;2023-01-01T00:20:48;99227.78;;;0.93;87.13
65546;BME280;52177;55.968;37.498;2023-01-01T00:21:19;99233.84;;;0.93;87.15
65546;BME280;52177;55.968;37.498;2023-01-01T00:21:49;99226.13;;;0.92;87.21
65546;BME280;52177;55.968;37.498;2023-01-01T00:22:19;99231.22;;;0.93;87.18
65546;BME280;52177;55.968;37.498;2023-01-01T00:22:50;99225.03;;;0.94;87.16
65546;BME280;52177;55.968;37.498;2023-01-01T00:23:20;99228.47;;;0.95;87.32
65546;BME280;52177;55.968;37.498;2023-01-01T00:23:51;99227.50;;;0.96;87.22
65546;BME280;52177;55.968;37.498;2023-01-01T00:24:21;99232.63;;;0.97;87.26
65546;BME280;52177;55.968;37.498;2023-01-01T00:24:51;99229.19;;;0.97;87.16
65546;BME280;52177;55.968;37.498;2023-01-01T00:25:22;99223.94;;;0.97;87.24
65546;BME280;52177;55.968;37.498;2023-01-01T00:25:53;99227.28;;;0.99;87.28
65546;BME280;52177;55.968;37.498;2023-01-01T00:26:25;99221.31;;;0.97;87.37
65546;BME280;52177;55.968;37.498;2023-01-01T00:26:55;99229.19;;;0.97;87.35
65546;BME280;52177;55.968;37.498;2023-01-01T00:27:26;99219.63;;;0.96;87.23
65546;BME280;52177;55.968;37.498;2023-01-01T00:27:56;99219.50;;;0.97;87.23
65546;BME280;52177;55.968;37.498;2023-01-01T00:28:26;99222.13;;;0.97;87.38
65546;BME280;52177;55.968;37.498;2023-01-01T00:28:57;99218.56;;;0.98;87.30
65546;BME280;52177;55.968;37.498;2023-01-01T00:29:27;99210.81;;;0.97;87.33
65546;BME280;52177;55.968;37.498;2023-01-01T00:29:57;99221.19;;;0.98;87.06
65546;BME280;52177;55.968;37.498;2023-01-01T00:30:28;99211.66;;;0.97;87.33
65546;BME280;52177;55.968;37.498;2023-01-01T00:30:58;99212.63;;;0.96;87.36
65546;BME280;52177;55.968;37.498;2023-01-01T00:31:29;99208.19;;;0.97;87.41
65546;BME280;52177;55.968;37.498;2023-01-01T00:32:00;99211.66;;;0.97;87.29
65546;BME280;52177;55.968;37.498;2023-01-01T00:32:30;99203.66;;;0.99;87.29
65546;BME280;52177;55.968;37.498;2023-01-01T00:33:00;99200.88;;;1.00;87.32
65546;BME280;52177;55.968;37.498;2023-01-01T00:33:31;99200.88;;;1.00;87.45
65546;BME280;52177;55.968;37.498;2023-01-01T00:34:01;99195.63;;;1.00;87.42
65546;BME280;52177;55.968;37.498;2023-01-01T00:34:31;99207.00;;;1.01;87.31
65546;BME280;52177;55.968;37.498;2023-01-01T00:35:02;99211.16;;;1.03;87.20
65546;BME280;52177;55.968;37.498;2023-01-01T00:35:33;99210.28;;;1.03;87.20
65546;BME280;52177;55.968;37.498;2023-01-01T00:36:11;99206.13;;;1.00;87.33
65546;BME280;52177;55.968;37.498;2023-01-01T00:36:42;99199.13;;;1.01;87.31
65546;BME280;52177;55.968;37.498;2023-01-01T00:37:12;99203.66;;;0.99;87.47
65546;BME280;52177;55.968;37.498;2023-01-01T00:37:44;99206.41;;;0.97;87.04
65546;BME280;52177;55.968;37.498;2023-01-01T00:38:14;99206.28;;;0.99;87.30
65546;BME280;52177;55.968;37.498;2023-01-01T00:38:45;99207.94;;;1.00;87.41
65546;BME280;52177;55.968;37.498;2023-01-01T00:39:15;99207.81;;;1.01;87.36
65546;BME280;52177;55.968;37.498;2023-01-01T00:39:45;99209.59;;;1.01;87.38
65546;BME280;52177;55.968;37.498;2023-01-01T00:40:16;99208.06;;;0.98;87.37
65546;BME280;52177;55.968;37.498;2023-01-01T00:40:47;99206.13;;;1.00;87.32
65546;BME280;52177;55.968;37.498;2023-01-01T00:41:18;99207.81;;;1.01;87.42
65546;BME280;52177;55.968;37.498;2023-01-01T00:41:49;99201.75;;;1.01;87.29
65546;BME280;52177;55.968;37.498;2023-01-01T00:42:19;99200.88;;;1.00;87.36
65546;BME280;52177;55.968;37.498;2023-01-01T00:42:50;99195.63;;;1.00;87.38
65546;BME280;52177;55.968;37.498;2023-01-01T00:43:20;99196.50;;;1.01;87.24
65546;BME280;52177;55.968;37.498;2023-01-01T00:43:51;99194.81;;;1.00;87.26
65546;BME280;52177;55.968;37.498;2023-01-01T00:44:21;99198.25;;;1.00;87.30
65546;BME280;52177;55.968;37.498;2023-01-01T00:44:51;99193.00;;;1.00;87.29
65546;BME280;52177;55.968;37.498;2023-01-01T00:45:22;99191.09;;;1.02;87.33
65546;BME280;52177;55.968;37.498;2023-01-01T00:45:52;99181.41;;;1.03;87.37
65546;BME280;52177;55.968;37.498;2023-01-01T00:46:23;99186.66;;;1.03;87.26
65546;BME280;52177;55.968;37.498;2023-01-01T00:46:53;99186.66;;;1.03;87.28
65546;BME280;52177;55.968;37.498;2023-01-01T00:47:24;99182.28;;;1.03;87.18
65546;BME280;52177;55.968;37.498;2023-01-01T00:47:54;99175.22;;;1.04;87.28
65546;BME280;52177;55.968;37.498;2023-01-01T00:48:24;99183.94;;;1.04;87.32
65546;BME280;52177;55.968;37.498;2023-01-01T00:48:55;99179.50;;;1.05;87.42
65546;BME280;52177;55.968;37.498;2023-01-01T00:49:25;99178.69;;;1.04;87.23
65546;BME280;52177;55.968;37.498;2023-01-01T00:49:56;99176.88;;;1.05;87.23
65546;BME280;52177;55.968;37.498;2023-01-01T00:50:27;99176.06;;;1.04;87.17
65546;BME280;52177;55.968;37.498;2023-01-01T00:50:57;99171.78;;;1.03;87.22
65546;BME280;52177;55.968;37.498;2023-01-01T00:51:28;99168.28;;;1.03;87.23
65546;BME280;52177;55.968;37.498;2023-01-01T00:51:59;99168.28;;;1.03;87.38
65546;BME280;52177;55.968;37.498;2023-01-01T00:52:29;99168.19;;;1.04;87.34
65546;BME280;52177;55.968;37.498;2023-01-01T00:53:00;99173.53;;;1.03;87.16
65546;BME280;52177;55.968;37.498;2023-01-01T00:53:30;99170.91;;;1.03;87.32
65546;BME280;52177;55.968;37.498;2023-01-01T00:54:00;99165.66;;;1.03;87.18
65546;BME280;52177;55.968;37.498;2023-01-01T00:54:31;99169.28;;;1.02;87.28
65546;BME280;52177;55.968;37.498;2023-01-01T00:55:01;99174.53;;;1.02;87.31
65546;BME280;52177;55.968;37.498;2023-01-01T00:55:32;99170.91;;;1.03;87.53
65546;BME280;52177;55.968;37.498;2023-01-01T00:56:03;99165.66;;;1.03;87.29
65546;BME280;52177;55.968;37.498;2023-01-01T00:56:33;99166.53;;;1.03;87.34
65546;BME280;52177;55.968;37.498;2023-01-01T00:57:04;99158.78;;;1.02;87.22
65546;BME280;52177;55.968;37.498;2023-01-01T00:57:34;99165.66;;;1.03;87.28
65546;BME280;52177;55.968;37.498;2023-01-01T00:58:05;99166.53;;;1.03;87.29
65546;BME280;52177;55.968;37.498;2023-01-01T00:58:35;99169.16;;;1.03;87.51
65546;BME280;52177;55.968;37.498;2023-01-01T00:59:06;99168.28;;;1.03;87.44
65546;BME280;52177;55.968;37.498;2023-01-01T00:59:36;99166.53;;;1.03;87.42
65546;BME280;52177;55.968;37.498;2023-01-01T01:00:07;99168.19;;;1.04;87.33
65546;BME280;52177;55.968;37.498;2023-01-01T01:00:38;99161.13;;;1.05;87.35
65546;BME280;52177;55.968;37.498;2023-01-01T01:01:08;99161.00;;;1.07;87.46
65546;BME280;52177;55.968;37.498;2023-01-01T01:01:38;99155.88;;;1.05;87.34
65546;BME280;52177;55.968;37.498;2023-01-01T01:02:10;99157.56;;;1.06;87.58
65546;BME280;52177;55.968;37.498;2023-01-01T01:02:40;99156.59;;;1.07;87.51
65546;BME280;52177;55.968;37.498;2023-01-01T01:03:12;99163.53;;;1.08;87.28
65546;BME280;52177;55.968;37.498;2023-01-01T01:03:58;99155.63;;;1.08;87.38
65546;BME280;52177;55.968;37.498;2023-01-01T01:04:28;99156.59;;;1.07;87.15
65546;BME280;52177;55.968;37.498;2023-01-01T01:04:59;99153.13;;;1.07;87.22
65546;BME280;52177;55.968;37.498;2023-01-01T01:05:31;99153.00;;;1.08;87.22
65546;BME280;52177;55.968;37.498;2023-01-01T01:06:32;99154.94;;;1.06;87.09
65546;BME280;52177;55.968;37.498;2023-01-01T01:07:02;99150.63;;;1.05;87.17
65546;BME280;52177;55.968;37.498;2023-01-01T01:07:36;99147.19;;;1.04;87.18
65546;BME280;52177;55.968;37.498;2023-01-01T01:08:07;99141.81;;;1.06;87.18
65546;BME280;52177;55.968;37.498;2023-01-01T01:08:40;99146.25;;;1.05;87.14
65546;BME280;52177;55.968;37.498;2023-01-01T01:09:10;99140.13;;;1.05;87.25
65546;BME280;52177;55.968;37.498;2023-01-01T01:09:41;99148.72;;;1.07;87.29
65546;BME280;52177;55.968;37.498;2023-01-01T01:10:11;99145.38;;;1.05;87.17
65546;BME280;52177;55.968;37.498;2023-01-01T01:10:41;99142.63;;;1.07;87.09
65546;BME280;52177;55.968;37.498;2023-01-01T01:11:15;99142.75;;;1.05;87.31
65546;BME280;52177;55.968;37.498;2023-01-01T01:11:46;99135.97;;;1.02;87.19
65546;BME280;52177;55.968;37.498;2023-01-01T01:12:16;99136.69;;;1.04;87.17
65546;BME280;52177;55.968;37.498;2023-01-01T01:12:47;99134.88;;;1.05;87.26
65546;BME280;52177;55.968;37.498;2023-01-01T01:13:18;99140.97;;;1.05;87.30
65546;BME280;52177;55.968;37.498;2023-01-01T01:13:50;99139.19;;;1.06;87.13
65546;BME280;52177;55.968;37.498;2023-01-01T01:14:21;99138.47;;;1.04;87.19
65546;BME280;52177;55.968;37.498;2023-01-01T01:14:51;99135.84;;;1.04;87.13
65546;BME280;52177;55.968;37.498;2023-01-01T01:15:22;99134.06;;;1.04;87.13
65546;BME280;52177;55.968;37.498;2023-01-01T01:15:52;99139.31;;;1.04;87.14
65546;BME280;52177;55.968;37.498;2023-01-01T01:16:25;99121.19;;;1.01;87.30
65546;BME280;52177;55.968;37.498;2023-01-01T01:16:56;99126.31;;;1.03;87.12
65546;BME280;52177;55.968;37.498;2023-01-01T01:17:26;99127.41;;;1.00;87.21
65546;BME280;52177;55.968;37.498;2023-01-01T01:17:58;99128.25;;;1.01;87.26
65546;BME280;52177;55.968;37.498;2023-01-01T01:18:28;99134.31;;;1.01;87.21
65546;BME280;52177;55.968;37.498;2023-01-01T01:19:00;99131.56;;;1.03;87.31
65546;BME280;52177;55.968;37.498;2023-01-01T01:19:31;99122.28;;;0.99;87.23
65546;BME280;52177;55.968;37.498;2023-01-01T01:20:02;99122.28;;;0.99;87.16
65546;BME280;52177;55.968;37.498;2023-01-01T01:20:33;99123.13;;;0.99;87.15
65546;BME280;52177;55.968;37.498;2023-01-01T01:21:03;99128.25;;;1.01;87.40
65546;BME280;52177;55.968;37.498;2023-01-01T01:21:34;99126.44;;;1.01;87.37
65546;BME280;52177;55.968;37.498;2023-01-01T01:22:04;99124.78;;;1.00;87.29
65546;BME280;52177;55.968;37.498;2023-01-01T01:22:34;99119.53;;;1.00;87.28
65546;BME280;52177;55.968;37.498;2023-01-01T01:23:05;99124.78;;;1.00;87.47
65546;BME280;52177;55.968;37.498;2023-01-01T01:23:36;99121.19;;;1.01;87.37
65546;BME280;52177;55.968;37.498;2023-01-01T01:24:06;99125.63;;;1.01;87.28
65546;BME280;52177;55.968;37.498;2023-01-01T01:24:36;99123.69;;;1.03;87.38
65546;BME280;52177;55.968;37.498;2023-01-01T01:25:07;99127.00;;;1.05;87.31
65546;BME280;52177;55.968;37.498;2023-01-01T01:25:37;99124.38;;;1.05;87.52
65546;BME280;52177;55.968;37.498;2023-01-01T01:26:16;99123.44;;;1.06;87.43
65546;BME280;52177;55.968;37.498;2023-01-01T01:26:47;99121.75;;;1.05;87.44
65546;BME280;52177;55.968;37.498;2023-01-01T01:27:17;99120.00;;;1.05;87.36
65546;BME280;52177;55.968;37.498;2023-01-01T01:27:48;99118.19;;;1.06;87.31
65546;BME280;52177;55.968;37.498;2023-01-01T01:28:18;99119.00;;;1.07;87.44
65546;BME280;52177;55.968;37.498;2023-01-01T01:28:48;99118.19;;;1.06;87.45
65546;BME280;52177;55.968;37.498;2023-01-01T01:29:19;99114.75;;;1.05;87.46
65546;BME280;52177;55.968;37.498;2023-01-01T01:29:49;99109.50;;;1.05;87.36
65546;BME280;52177;55.968;37.498;2023-01-01T01:30:19;99116.38;;;1.07;87.41
65546;BME280;52177;55.968;37.498;2023-01-01T01:30:50;99112.94;;;1.06;87.48
65546;BME280;52177;55.968;37.498;2023-01-01T01:31:22;99111.13;;;1.07;87.47
65546;BME280;52177;55.968;37.498;2023-01-01T01:31:53;99106.88;;;1.05;87.35
65546;BME280;52177;55.968;37.498;2023-01-01T01:32:23;99100.63;;;1.07;87.37
65546;BME280;52177;55.968;37.498;2023-01-01T01:32:53;99102.56;;;1.04;87.31
65546;BME280;52177;55.968;37.498;2023-01-01T01:33:24;99108.63;;;1.05;87.25
65546;BME280;52177;55.968;37.498;2023-01-01T01:33:54;99104.38;;;1.04;87.38
65546;BME280;52177;55.968;37.498;2023-01-01T01:34:24;99107.94;;;1.03;87.46
65546;BME280;52177;55.968;37.498;2023-01-01T01:34:55;99097.44;;;1.03;87.31
65546;BME280;52177;55.968;37.498;2023-01-01T01:35:25;99107.81;;;1.04;87.41
65546;BME280;52177;55.968;37.498;2023-01-01T01:35:55;99106.00;;;1.05;87.36
65546;BME280;52177;55.968;37.498;2023-01-01T01:36:26;99110.31;;;1.06;87.32
65546;BME280;52177;55.968;37.498;2023-01-01T01:36:57;99106.88;;;1.05;87.46
65546;BME280;52177;55.968;37.498;2023-01-01T01:37:27;99105.88;;;1.07;87.32
65546;BME280;52177;55.968;37.498;2023-01-01T01:37:58;99109.22;;;1.09;87.48
65546;BME280;52177;55.968;37.498;2023-01-01T01:38:28;99103.16;;;1.08;87.31
65546;BME280;52177;55.968;37.498;2023-01-01T01:38:59;99105.78;;;1.08;87.26
65546;BME280;52177;55.968;37.498;2023-01-01T01:39:29;99109.22;;;1.09;87.25
65546;BME280;52177;55.968;37.498;2023-01-01T01:39:59;99107.41;;;1.09;87.24
65546;BME280;52177;55.968;37.498;2023-01-01T01:40:30;99104.78;;;1.09;87.22
65546;BME280;52177;55.968;37.498;2023-01-01T01:41:00;99113.38;;;1.11;87.08
65546;BME280;52177;55.968;37.498;2023-01-01T01:41:31;99111.72;;;1.10;87.04
65546;BME280;52177;55.968;37.498;2023-01-01T01:42:01;99110.16;;;1.08;87.12
65546;BME280;52177;55.968;37.498;2023-01-01T01:42:32;99113.50;;;1.10;87.06
65546;BME280;52177;55.968;37.498;2023-01-01T01:43:03;99113.66;;;1.08;86.90
65546;BME280;52177;55.968;37.498;2023-01-01T01:45:13;99107.69;;;1.06;86.99
65546;BME280;52177;55.968;37.498;2023-01-01T01:45:44;99106.72;;;1.07;87.05
65546;BME280;52177;55.968;37.498;2023-01-01T01:46:27;99107.53;;;1.08;86.87
65546;BME280;52177;55.968;37.498;2023-01-01T01:47:00;99110.16;;;1.08;86.87
65546;BME280;52177;55.968;37.498;2023-01-01T01:48:02;99107.69;;;1.06;86.96
65546;BME280;52177;55.968;37.498;2023-01-01T01:48:36;99107.53;;;1.08;86.98
65546;BME280;52177;55.968;37.498;2023-01-01T01:49:45;99100.25;;;1.11;86.87
65546;BME280;52177;55.968;37.498;2023-01-01T01:50:23;99107.31;;;1.11;86.83
65546;BME280;52177;55.968;37.498;2023-01-01T01:50:54;99101.22;;;1.10;86.88
65546;BME280;52177;55.968;37.498;2023-01-01T01:51:31;99096.81;;;1.11;86.73
65546;BME280;52177;55.968;37.498;2023-01-01T01:52:03;99101.06;;;1.12;86.77
65546;BME280;52177;55.968;37.498;2023-01-01T01:52:35;99093.19;;;1.12;86.69
65546;BME280;52177;55.968;37.498;2023-01-01T01:53:13;99103.59;;;1.13;86.56
65546;BME280;52177;55.968;37.498;2023-01-01T01:53:51;99092.38;;;1.11;86.72
65546;BME280;52177;55.968;37.498;2023-01-01T01:54:26;99098.59;;;1.10;86.66
65546;BME280;52177;55.968;37.498;2023-01-01T01:54:58;99099.81;;;1.06;86.58
65546;BME280;52177;55.968;37.498;2023-01-01T01:55:33;99096.59;;;1.02;86.78
65546;BME280;52177;55.968;37.498;2023-01-01T01:56:10;99097.59;;;1.01;86.85
65546;BME280;52177;55.968;37.498;2023-01-01T01:57:21;99094.81;;;1.03;87.05
65546;BME280;52177;55.968;37.498;2023-01-01T01:57:52;99094.69;;;1.04;86.98
65546;BME280;52177;55.968;37.498;2023-01-01T01:58:24;99095.50;;;1.05;87.01
65546;BME280;52177;55.968;37.498;2023-01-01T01:58:55;99094.56;;;1.06;86.88
65546;BME280;52177;55.968;37.498;2023-01-01T01:59:29;99089.16;;;1.08;86.89
65546;BME280;52177;55.968;37.498;2023-01-01T02:00:01;99088.34;;;1.07;86.79
65546;BME280;52177;55.968;37.498;2023-01-01T02:00:31;99078.81;;;1.06;86.83
65546;BME280;52177;55.968;37.498;2023-01-01T02:01:02;99087.53;;;1.07;86.65
65546;BME280;52177;55.968;37.498;2023-01-01T02:01:32;99081.28;;;1.08;86.82
65546;BME280;52177;55.968;37.498;2023-01-01T02:02:08;99077.84;;;1.07;86.76
65546;BME280;52177;55.968;37.498;2023-01-01T02:02:58;99070.13;;;1.05;86.81
65546;BME280;52177;55.968;37.498;2023-01-01T02:03:42;99080.47;;;1.07;86.78
65546;BME280;52177;55.968;37.498;2023-01-01T02:04:15;99073.56;;;1.06;86.72
65546;BME280;52177;55.968;37.498;2023-01-01T02:04:46;99074.50;;;1.05;86.79
65546;BME280;52177;55.968;37.498;2023-01-01T02:05:18;99075.38;;;1.05;86.78
65546;BME280;52177;55.968;37.498;2023-01-01T02:05:49;99079.66;;;1.07;86.84
65546;BME280;52177;55.968;37.498;2023-01-01T02:06:21;99073.28;;;1.09;86.81
65546;BME280;52177;55.968;37.498;2023-01-01T02:06:51;99074.13;;;1.10;86.81
65546;BME280;52177;55.968;37.498;2023-01-01T02:07:25;99077.59;;;1.10;86.75
65546;BME280;52177;55.968;37.498;2023-01-01T02:07:58;99077.72;;;1.09;86.68
65546;BME280;52177;55.968;37.498;2023-01-01T02:08:29;99071.66;;;1.08;86.80
65546;BME280;52177;55.968;37.498;2023-01-01T02:09:02;99073.28;;;1.09;86.78
65546;BME280;52177;55.968;37.498;2023-01-01T02:09:33;99068.75;;;1.11;86.66
65546;BME280;52177;55.968;37.498;2023-01-01T02:10:04;99073.88;;;1.13;86.79
65546;BME280;52177;55.968;37.498;2023-01-01T02:10:35;99066.13;;;1.11;86.67
65546;BME280;52177;55.968;37.498;2023-01-01T02:11:05;99065.03;;;1.14;86.68
65546;BME280;52177;55.968;37.498;2023-01-01T02:11:36;99063.22;;;1.14;86.65
65546;BME280;52177;55.968;37.498;2023-01-01T02:12:06;99062.13;;;1.17;86.67
65546;BME280;52177;55.968;37.498;2023-01-01T02:12:37;99068.34;;;1.16;86.46
65546;BME280;52177;55.968;37.498;2023-01-01T02:13:07;99060.47;;;1.16;86.35
65546;BME280;52177;55.968;37.498;2023-01-01T02:13:38;99063.22;;;1.14;86.36
65546;BME280;52177;55.968;37.498;2023-01-01T02:14:08;99058.94;;;1.13;86.39
65546;BME280;52177;55.968;37.498;2023-01-01T02:14:39;99060.75;;;1.13;86.28
65546;BME280;52177;55.968;37.498;2023-01-01T02:15:09;99050.25;;;1.13;86.51
65546;BME280;52177;55.968;37.498;2023-01-01T02:16:05;99061.56;;;1.13;86.62
65546;BME280;52177;55.968;37.498;2023-01-01T02:16:52;99055.63;;;1.11;86.48
65546;BME280;52177;55.968;37.498;2023-01-01T02:17:33;99058.94;;;1.13;86.57
65546;BME280;52177;55.968;37.498;2023-01-01T02:18:10;99061.69;;;1.12;86.53
65546;BME280;52177;55.968;37.498;2023-01-01T02:18:45;99060.88;;;1.11;86.44
65546;BME280;52177;55.968;37.498;2023-01-01T02:19:28;99063.50;;;1.11;86.49
65546;BME280;52177;55.968;37.498;2023-01-01T02:20:17;99062.69;;;1.11;86.63
65546;BME280;52177;55.968;37.498;2023-01-01T02:21:13;99066.13;;;1.11;86.61
65546;BME280;52177;55.968;37.498;2023-01-01T02:23:01;99070.41;;;1.12;86.65
65546;BME280;52177;55.968;37.498;2023-01-01T02:24:19;99062.53;;;1.12;86.55
65546;BME280;52177;55.968;37.498;2023-01-01T02:25:16;99068.47;;;1.14;86.46
65546;BME280;52177;55.968;37.498;2023-01-01T02:29:02;99061.56;;;1.13;86.60
65546;BME280;52177;55.968;37.498;2023-01-01T02:29:51;99052.03;;;1.12;86.59
65546;BME280;52177;55.968;37.498;2023-01-01T02:30:25;99056.34;;;1.13;86.50
65546;BME280;52177;55.968;37.498;2023-01-01T02:30:57;99056.44;;;1.12;86.61
65546;BME280;52177;55.968;37.498;2023-01-01T02:31:34;99043.31;;;1.12;86.42
65546;BME280;52177;55.968;37.498;2023-01-01T02:32:13;99051.19;;;1.12;86.54
65546;BME280;52177;55.968;37.498;2023-01-01T02:32:53;99059.78;;;1.14;86.53
65546;BME280;52177;55.968;37.498;2023-01-01T02:33:27;99053.81;;;1.12;86.47
65546;BME280;52177;55.968;37.498;2023-01-01T02:34:01;99046.09;;;1.10;86.58
65546;BME280;52177;55.968;37.498;2023-01-01T02:34:46;99051.34;;;1.10;86.49
65546;BME280;52177;55.968;37.498;2023-01-01T02:35:25;99051.34;;;1.10;86.52
65546;BME280;52177;55.968;37.498;2023-01-01T02:36:09;99050.25;;;1.13;86.57
65546;BME280;52177;55.968;37.498;2023-01-01T02:36:47;99046.78;;;1.12;86.59
65546;BME280;52177;55.968;37.498;2023-01-01T02:37:20;99047.88;;;1.10;86.59
65546;BME280;52177;55.968;37.498;2023-01-01T02:37:55;99046.78;;;1.12;86.42
65546;BME280;52177;55.968;37.498;2023-01-01T02:38:30;99047.63;;;1.13;86.54
65546;BME280;52177;55.968;37.498;2023-01-01T02:39:02;99044.31;;;1.11;86.53
65546;BME280;52177;55.968;37.498;2023-01-01T02:39:36;99050.38;;;1.11;86.61
65546;BME280;52177;55.968;37.498;2023-01-01T02:40:08;99053.00;;;1.11;86.48
65546;BME280;52177;55.968;37.498;2023-01-01T02:40:43;99053.00;;;1.11;86.56
65546;BME280;52177;55.968;37.498;2023-01-01T02:41:29;99044.16;;;1.12;86.42
65546;BME280;52177;55.968;37.498;2023-01-01T02:42:04;99050.09;;;1.14;86.49
65546;BME280;52177;55.968;37.498;2023-01-01T02:42:36;99043.19;;;1.13;86.35
65546;BME280;52177;55.968;37.498;2023-01-01T02:43:06;99037.13;;;1.13;86.39
65546;BME280;52177;55.968;37.498;2023-01-01T02:43:38;99050.25;;;1.13;86.58
65546;BME280;52177;55.968;37.498;2023-01-01T02:44:10;99042.38;;;1.13;86.39
65546;BME280;52177;55.968;37.498;2023-01-01T02:44:43;99037.25;;;1.11;86.42
65546;BME280;52177;55.968;37.498;2023-01-01T02:45:16;99039.88;;;1.11;86.51
65546;BME280;52177;55.968;37.498;2023-01-01T02:45:46;99039.88;;;1.11;86.51
65546;BME280;52177;55.968;37.498;2023-01-01T02:46:16;99028.56;;;1.11;86.50
65546;BME280;52177;55.968;37.498;2023-01-01T02:46:47;99030.34;;;1.10;86.60
65546;BME280;52177;55.968;37.498;2023-01-01T02:47:18;99031.19;;;1.11;86.68
65546;BME280;52177;55.968;37.498;2023-01-01T02:47:49;99027.72;;;1.10;86.63
65546;BME280;52177;55.968;37.498;2023-01-01T02:48:36;99026.06;;;1.09;86.68
65546;BME280;52177;55.968;37.498;2023-01-01T02:49:08;99023.31;;;1.11;86.79
65546;BME280;52177;55.968;37.498;2023-01-01T02:49:53;99018.88;;;1.11;86.84
65546;BME280;52177;55.968;37.498;2023-01-01T02:50:26;99019.00;;;1.10;86.79
65546;BME280;52177;55.968;37.498;2023-01-01T02:51:03;99019.84;;;1.10;86.89
65546;BME280;52177;55.968;37.498;2023-01-01T02:53:37;99013.34;;;1.14;86.75
65546;BME280;52177;55.968;37.498;2023-01-01T02:54:59;99012.41;;;1.15;86.81
65546;BME280;52177;55.968;37.498;2023-01-01T02:57:25;99011.44;;;1.16;86.63
65546;BME280;52177;55.968;37.498;2023-01-01T02:58:12;99014.22;;;1.15;86.68
65546;BME280;52177;55.968;37.498;2023-01-01T03:00:05;99020.28;;;1.15;86.77
65546;BME280;52177;55.968;37.498;2023-01-01T03:00:58;99015.03;;;1.15;86.83
65546;BME280;52177;55.968;37.498;2023-01-01T03:01:40;99007.16;;;1.15;86.71
65546;BME280;52177;55.968;37.498;2023-01-01T03:02:36;99010.88;;;1.13;86.71
65546;BME280;52177;55.968;37.498;2023-01-01T03:03:30;99012.81;;;1.11;86.72
65546;BME280;52177;55.968;37.498;2023-01-01T03:04:20;99009.34;;;1.10;86.99
65546;BME280;52177;55.968;37.498;2023-01-01T03:07:03;99029.38;;;1.11;87.00
65546;BME280;52177;55.968;37.498;2023-01-01T03:09:54;99038.34;;;1.09;87.01
65546;BME280;52177;55.968;37.498;2023-01-01T03:11:09;99030.19;;;1.12;87.10
65546;BME280;52177;55.968;37.498;2023-01-01T03:13:38;99020.69;;;1.11;87.11
65546;BME280;52177;55.968;37.498;2023-01-01T03:14:26;99024.94;;;1.12;87.16
65546;BME280;52177;55.968;37.498;2023-01-01T03:15:07;99018.06;;;1.11;87.23
65546;BME280;52177;55.968;37.498;2023-01-01T03:15:49;99010.03;;;1.12;87.01
65546;BME280;52177;55.968;37.498;2023-01-01T03:16:28;99015.28;;;1.12;87.02